sensor_id;sensor_type;location;lat;lon;timestamp;temperature;humidity
5466;DHT22;2755;50.728;7.108;2023-03-11T00:00:11;1.90;99.90
5466;DHT22;2755;50.728;7.108;2023-03-11T00:02:38;1.60;99.90
5466;DHT22;2755;50.728;7.108;2023-03-11T00:05:05;2.10;99.90
5466;DHT22;2755;50.728;7.108;2023-03-11T00:07:31;1.90;99.90
5466;DHT22;2755;50.728;7.108;2023-03-11T00:09:56;1.40;99.90
5466;DHT22;2755;50.728;7.108;2023-03-11T00:12:23;2.20;99.90
5466;DHT22;2755;50.728;7.108;2023-03-11T00:14:48;2.00;99.90
5466;DHT22;2755;50.728;7.108;2023-03-11T00:17:14;1.70;99.90
5466;DHT22;2755;50.728;7.108;2023-03-11T00:19:39;2.10;99.90
5466;DHT22;2755;50.728;7.108;2023-03-11T00:22:05;2.10;99.90
5466;DHT22;2755;50.728;7.108;2023-03-11T00:24:30;2.10;99.90
5466;DHT22;2755;50.728;7.108;2023-03-11T00:26:56;2.00;99.90
5466;DHT22;2755;50.728;7.108;2023-03-11T00:29:21;2.00;99.90
5466;DHT22;2755;50.728;7.108;2023-03-11T00:31:47;2.20;99.90
5466;DHT22;2755;50.728;7.108;2023-03-11T00:34:12;2.10;99.90
5466;DHT22;2755;50.728;7.108;2023-03-11T00:36:38;1.90;99.90
5466;DHT22;2755;50.728;7.108;2023-03-11T00:39:04;2.30;99.90
5466;DHT22;2755;50.728;7.108;2023-03-11T00:41:32;2.00;99.90
5466;DHT22;2755;50.728;7.108;2023-03-11T00:43:58;2.10;99.90
5466;DHT22;2755;50.728;7.108;2023-03-11T00:46:24;2.00;99.90
5466;DHT22;2755;50.728;7.108;2023-03-11T00:48:50;2.20;99.90
5466;DHT22;2755;50.728;7.108;2023-03-11T00:51:16;2.30;99.90
5466;DHT22;2755;50.728;7.108;2023-03-11T00:53:42;2.20;99.90
5466;DHT22;2755;50.728;7.108;2023-03-11T00:56:13;2.10;99.90
5466;DHT22;2755;50.728;7.108;2023-03-11T00:58:40;2.10;99.90
5466;DHT22;2755;50.728;7.108;2023-03-11T01:01:08;1.90;99.90
5466;DHT22;2755;50.728;7.108;2023-03-11T01:03:35;2.20;99.90
5466;DHT22;2755;50.728;7.108;2023-03-11T01:06:01;2.00;99.90
5466;DHT22;2755;50.728;7.108;2023-03-11T01:08:26;2.30;99.90
5466;DHT22;2755;50.728;7.108;2023-03-11T01:10:52;2.20;99.90
5466;DHT22;2755;50.728;7.108;2023-03-11T01:13:18;1.80;99.90
5466;DHT22;2755;50.728;7.108;2023-03-11T01:15:43;1.90;99.90
5466;DHT22;2755;50.728;7.108;2023-03-11T01:18:09;2.20;99.90
5466;DHT22;2755;50.728;7.108;2023-03-11T01:20:37;1.50;99.90
5466;DHT22;2755;50.728;7.108;2023-03-11T01:23:03;2.00;99.90
5466;DHT22;2755;50.728;7.108;2023-03-11T01:25:29;1.80;99.90
5466;DHT22;2755;50.728;7.108;2023-03-11T01:27:54;1.90;99.90
5466;DHT22;2755;50.728;7.108;2023-03-11T01:30:22;1.00;99.90
5466;DHT22;2755;50.728;7.108;2023-03-11T01:32:49;1.70;99.90
5466;DHT22;2755;50.728;7.108;2023-03-11T01:35:17;2.00;99.90
5466;DHT22;2755;50.728;7.108;2023-03-11T01:37:43;1.50;99.90
5466;DHT22;2755;50.728;7.108;2023-03-11T01:40:31;1.60;99.90
5466;DHT22;2755;50.728;7.108;2023-03-11T01:42:59;1.90;99.90
5466;DHT22;2755;50.728;7.108;2023-03-11T01:45:32;2.20;99.90
5466;DHT22;2755;50.728;7.108;2023-03-11T01:50:26;2.00;99.90
5466;DHT22;2755;50.728;7.108;2023-03-11T01:52:52;1.70;99.90
5466;DHT22;2755;50.728;7.108;2023-03-11T01:55:18;1.70;98.90
5466;DHT22;2755;50.728;7.108;2023-03-11T01:57:46;2.00;99.50
5466;DHT22;2755;50.728;7.108;2023-03-11T02:00:13;1.70;97.00
5466;DHT22;2755;50.728;7.108;2023-03-11T02:03:00;1.80;97.80
5466;DHT22;2755;50.728;7.108;2023-03-11T02:05:26;1.60;99.90
5466;DHT22;2755;50.728;7.108;2023-03-11T02:07:54;1.40;99.90
5466;DHT22;2755;50.728;7.108;2023-03-11T02:10:20;2.00;99.80
5466;DHT22;2755;50.728;7.108;2023-03-11T02:12:47;1.80;99.10
5466;DHT22;2755;50.728;7.108;2023-03-11T02:15:13;1.80;99.70
5466;DHT22;2755;50.728;7.108;2023-03-11T02:17:40;1.00;99.90
5466;DHT22;2755;50.728;7.108;2023-03-11T02:23:07;1.70;99.00
5466;DHT22;2755;50.728;7.108;2023-03-11T02:25:41;1.60;99.10
5466;DHT22;2755;50.728;7.108;2023-03-11T02:28:11;1.70;98.30
5466;DHT22;2755;50.728;7.108;2023-03-11T02:30:39;0.70;98.00
5466;DHT22;2755;50.728;7.108;2023-03-11T02:33:06;1.70;99.90
5466;DHT22;2755;50.728;7.108;2023-03-11T02:35:32;1.70;97.90
5466;DHT22;2755;50.728;7.108;2023-03-11T02:37:57;1.80;95.80
5466;DHT22;2755;50.728;7.108;2023-03-11T02:42:51;1.10;96.60
5466;DHT22;2755;50.728;7.108;2023-03-11T02:45:21;1.70;97.10
5466;DHT22;2755;50.728;7.108;2023-03-11T02:47:49;0.90;97.70
5466;DHT22;2755;50.728;7.108;2023-03-11T02:50:16;1.80;96.00
5466;DHT22;2755;50.728;7.108;2023-03-11T02:52:43;1.40;96.10
5466;DHT22;2755;50.728;7.108;2023-03-11T02:55:09;1.60;95.80
5466;DHT22;2755;50.728;7.108;2023-03-11T02:57:37;1.60;95.70
5466;DHT22;2755;50.728;7.108;2023-03-11T03:00:03;1.30;96.70
5466;DHT22;2755;50.728;7.108;2023-03-11T03:02:35;1.60;97.80
5466;DHT22;2755;50.728;7.108;2023-03-11T03:05:02;1.70;95.50
5466;DHT22;2755;50.728;7.108;2023-03-11T03:07:28;1.50;95.90
5466;DHT22;2755;50.728;7.108;2023-03-11T03:09:54;0.50;93.80
5466;DHT22;2755;50.728;7.108;2023-03-11T03:12:19;0.70;94.70
5466;DHT22;2755;50.728;7.108;2023-03-11T03:14:45;1.90;95.60
5466;DHT22;2755;50.728;7.108;2023-03-11T03:17:10;1.50;94.50
5466;DHT22;2755;50.728;7.108;2023-03-11T03:19:36;1.50;96.00
5466;DHT22;2755;50.728;7.108;2023-03-11T03:22:01;1.40;95.30
5466;DHT22;2755;50.728;7.108;2023-03-11T03:26:53;1.00;96.70
5466;DHT22;2755;50.728;7.108;2023-03-11T03:29:18;1.20;96.10
5466;DHT22;2755;50.728;7.108;2023-03-11T03:31:44;0.80;94.80
5466;DHT22;2755;50.728;7.108;2023-03-11T03:34:09;1.20;94.80
5466;DHT22;2755;50.728;7.108;2023-03-11T03:36:35;0.60;94.40
5466;DHT22;2755;50.728;7.108;2023-03-11T03:39:01;1.40;94.00
5466;DHT22;2755;50.728;7.108;2023-03-11T03:41:26;1.00;93.80
5466;DHT22;2755;50.728;7.108;2023-03-11T03:43:52;0.80;93.60
5466;DHT22;2755;50.728;7.108;2023-03-11T03:46:19;1.40;94.60
5466;DHT22;2755;50.728;7.108;2023-03-11T03:48:45;0.60;94.50
5466;DHT22;2755;50.728;7.108;2023-03-11T03:51:12;0.40;94.70
5466;DHT22;2755;50.728;7.108;2023-03-11T03:53:38;0.90;95.50
5466;DHT22;2755;50.728;7.108;2023-03-11T03:56:05;0.80;94.10
5466;DHT22;2755;50.728;7.108;2023-03-11T03:58:31;0.70;94.90
5466;DHT22;2755;50.728;7.108;2023-03-11T04:00:58;0.80;95.90
5466;DHT22;2755;50.728;7.108;2023-03-11T04:03:27;1.00;96.90
5466;DHT22;2755;50.728;7.108;2023-03-11T04:05:52;0.50;96.20
5466;DHT22;2755;50.728;7.108;2023-03-11T04:08:18;0.10;97.00
5466;DHT22;2755;50.728;7.108;2023-03-11T04:10:53;0.30;96.70
5466;DHT22;2755;50.728;7.108;2023-03-11T04:13:20;0.30;98.30
5466;DHT22;2755;50.728;7.108;2023-03-11T04:15:45;0.20;98.80
5466;DHT22;2755;50.728;7.108;2023-03-11T04:20:38;-0.40;98.00
5466;DHT22;2755;50.728;7.108;2023-03-11T04:23:03;0.00;98.40
5466;DHT22;2755;50.728;7.108;2023-03-11T04:25:29;0.20;98.40
5466;DHT22;2755;50.728;7.108;2023-03-11T04:30:20;0.40;99.90
5466;DHT22;2755;50.728;7.108;2023-03-11T04:32:46;0.60;99.90
5466;DHT22;2755;50.728;7.108;2023-03-11T04:35:12;-0.40;99.90
5466;DHT22;2755;50.728;7.108;2023-03-11T04:37:37;-0.10;99.90
5466;DHT22;2755;50.728;7.108;2023-03-11T04:40:03;0.60;99.90
5466;DHT22;2755;50.728;7.108;2023-03-11T04:42:33;-0.20;99.90
5466;DHT22;2755;50.728;7.108;2023-03-11T04:44:58;-0.40;99.90
5466;DHT22;2755;50.728;7.108;2023-03-11T04:47:24;-0.30;99.90
5466;DHT22;2755;50.728;7.108;2023-03-11T04:49:49;-0.40;99.90
5466;DHT22;2755;50.728;7.108;2023-03-11T04:52:15;-0.10;99.90
5466;DHT22;2755;50.728;7.108;2023-03-11T04:54:41;-0.60;99.90
5466;DHT22;2755;50.728;7.108;2023-03-11T04:57:06;0.40;99.90
5466;DHT22;2755;50.728;7.108;2023-03-11T05:01:58;-0.30;99.90
5466;DHT22;2755;50.728;7.108;2023-03-11T05:04:23;-0.20;99.90
5466;DHT22;2755;50.728;7.108;2023-03-11T05:06:49;-0.20;99.90
5466;DHT22;2755;50.728;7.108;2023-03-11T05:09:17;-0.20;99.90
5466;DHT22;2755;50.728;7.108;2023-03-11T05:11:43;-0.10;99.90
5466;DHT22;2755;50.728;7.108;2023-03-11T05:14:08;-0.30;99.90
5466;DHT22;2755;50.728;7.108;2023-03-11T05:16:34;-0.10;99.90
5466;DHT22;2755;50.728;7.108;2023-03-11T05:19:00;-0.40;99.90
5466;DHT22;2755;50.728;7.108;2023-03-11T05:21:25;0.20;99.90
5466;DHT22;2755;50.728;7.108;2023-03-11T05:23:51;-0.50;99.90
5466;DHT22;2755;50.728;7.108;2023-03-11T05:26:16;-0.50;99.90
5466;DHT22;2755;50.728;7.108;2023-03-11T05:28:42;-0.60;99.90
5466;DHT22;2755;50.728;7.108;2023-03-11T05:31:10;-1.20;99.90
5466;DHT22;2755;50.728;7.108;2023-03-11T05:33:36;-0.40;99.90
5466;DHT22;2755;50.728;7.108;2023-03-11T05:36:06;-0.80;99.90
5466;DHT22;2755;50.728;7.108;2023-03-11T05:38:34;-0.70;99.90
5466;DHT22;2755;50.728;7.108;2023-03-11T05:41:00;-1.00;99.90
5466;DHT22;2755;50.728;7.108;2023-03-11T05:43:25;-0.60;99.90
5466;DHT22;2755;50.728;7.108;2023-03-11T05:45:51;-0.60;99.90
5466;DHT22;2755;50.728;7.108;2023-03-11T05:48:17;-0.60;99.90
5466;DHT22;2755;50.728;7.108;2023-03-11T05:50:42;-0.10;99.90
5466;DHT22;2755;50.728;7.108;2023-03-11T05:53:08;-0.30;99.90
5466;DHT22;2755;50.728;7.108;2023-03-11T05:55:33;-0.30;99.90
5466;DHT22;2755;50.728;7.108;2023-03-11T05:57:59;-0.40;99.90
5466;DHT22;2755;50.728;7.108;2023-03-11T06:00:24;-0.10;99.90
5466;DHT22;2755;50.728;7.108;2023-03-11T06:02:53;-0.60;99.90
5466;DHT22;2755;50.728;7.108;2023-03-11T06:05:19;-1.30;99.90
5466;DHT22;2755;50.728;7.108;2023-03-11T06:07:44;0.00;99.90
5466;DHT22;2755;50.728;7.108;2023-03-11T06:10:10;-0.30;99.90
5466;DHT22;2755;50.728;7.108;2023-03-11T06:12:36;0.40;99.90
5466;DHT22;2755;50.728;7.108;2023-03-11T06:15:04;-0.10;99.90
5466;DHT22;2755;50.728;7.108;2023-03-11T06:17:29;0.30;99.90
5466;DHT22;2755;50.728;7.108;2023-03-11T06:19:55;-0.50;99.90
5466;DHT22;2755;50.728;7.108;2023-03-11T06:27:12;0.30;99.90
5466;DHT22;2755;50.728;7.108;2023-03-11T06:29:38;0.60;99.90
5466;DHT22;2755;50.728;7.108;2023-03-11T06:32:04;1.10;99.90
5466;DHT22;2755;50.728;7.108;2023-03-11T06:34:30;1.10;99.90
5466;DHT22;2755;50.728;7.108;2023-03-11T06:36:55;0.90;99.90
5466;DHT22;2755;50.728;7.108;2023-03-11T06:44:13;1.10;95.20
5466;DHT22;2755;50.728;7.108;2023-03-11T06:46:39;1.50;96.50
5466;DHT22;2755;50.728;7.108;2023-03-11T06:49:06;2.40;96.60
5466;DHT22;2755;50.728;7.108;2023-03-11T06:51:32;2.00;96.90
5466;DHT22;2755;50.728;7.108;2023-03-11T06:56:24;2.30;90.50
5466;DHT22;2755;50.728;7.108;2023-03-11T06:58:50;2.50;86.40
5466;DHT22;2755;50.728;7.108;2023-03-11T07:01:24;3.20;82.40
5466;DHT22;2755;50.728;7.108;2023-03-11T07:03:50;3.50;77.40
5466;DHT22;2755;50.728;7.108;2023-03-11T07:06:19;3.70;71.50
5466;DHT22;2755;50.728;7.108;2023-03-11T07:08:46;3.60;63.70
5466;DHT22;2755;50.728;7.108;2023-03-11T07:11:21;3.80;69.20
5466;DHT22;2755;50.728;7.108;2023-03-11T07:16:18;3.20;70.10
5466;DHT22;2755;50.728;7.108;2023-03-11T07:18:45;3.20;64.80
5466;DHT22;2755;50.728;7.108;2023-03-11T07:21:14;4.00;66.10
5466;DHT22;2755;50.728;7.108;2023-03-11T07:23:40;4.10;69.80
5466;DHT22;2755;50.728;7.108;2023-03-11T07:26:10;3.80;67.30
5466;DHT22;2755;50.728;7.108;2023-03-11T07:28:37;3.50;67.60
5466;DHT22;2755;50.728;7.108;2023-03-11T07:31:09;2.70;64.00
5466;DHT22;2755;50.728;7.108;2023-03-11T07:33:35;3.20;68.60
5466;DHT22;2755;50.728;7.108;2023-03-11T07:36:10;3.20;68.30
5466;DHT22;2755;50.728;7.108;2023-03-11T07:38:36;3.40;66.70
5466;DHT22;2755;50.728;7.108;2023-03-11T07:41:02;3.40;65.10
5466;DHT22;2755;50.728;7.108;2023-03-11T07:43:28;3.30;69.20
5466;DHT22;2755;50.728;7.108;2023-03-11T07:46:10;3.20;63.20
5466;DHT22;2755;50.728;7.108;2023-03-11T07:48:38;3.10;68.90
5466;DHT22;2755;50.728;7.108;2023-03-11T07:51:06;3.10;66.70
5466;DHT22;2755;50.728;7.108;2023-03-11T07:53:34;3.50;66.10
5466;DHT22;2755;50.728;7.108;2023-03-11T07:56:00;2.90;66.80
5466;DHT22;2755;50.728;7.108;2023-03-11T07:58:26;3.60;65.70
5466;DHT22;2755;50.728;7.108;2023-03-11T08:00:52;3.50;64.30
5466;DHT22;2755;50.728;7.108;2023-03-11T08:03:22;4.20;64.00
5466;DHT22;2755;50.728;7.108;2023-03-11T08:05:49;4.90;63.00
5466;DHT22;2755;50.728;7.108;2023-03-11T08:08:15;5.00;59.80
5466;DHT22;2755;50.728;7.108;2023-03-11T08:10:40;5.60;56.80
5466;DHT22;2755;50.728;7.108;2023-03-11T08:13:06;5.60;45.80
5466;DHT22;2755;50.728;7.108;2023-03-11T08:20:23;7.40;40.10
5466;DHT22;2755;50.728;7.108;2023-03-11T08:22:49;7.40;37.00
5466;DHT22;2755;50.728;7.108;2023-03-11T08:25:15;7.80;29.70
5466;DHT22;2755;50.728;7.108;2023-03-11T08:30:08;8.90;30.10
5466;DHT22;2755;50.728;7.108;2023-03-11T08:32:34;9.30;23.10
5466;DHT22;2755;50.728;7.108;2023-03-11T08:35:00;9.90;20.60
5466;DHT22;2755;50.728;7.108;2023-03-11T08:37:25;9.20;20.60
5466;DHT22;2755;50.728;7.108;2023-03-11T08:42:17;9.60;21.00
5466;DHT22;2755;50.728;7.108;2023-03-11T08:44:43;9.80;13.00
5466;DHT22;2755;50.728;7.108;2023-03-11T08:47:09;10.10;10.70
5466;DHT22;2755;50.728;7.108;2023-03-11T08:49:36;10.00;4.00
5466;DHT22;2755;50.728;7.108;2023-03-11T08:52:02;9.60;5.90
5466;DHT22;2755;50.728;7.108;2023-03-11T08:56:53;9.90;9.50
5466;DHT22;2755;50.728;7.108;2023-03-11T08:59:19;9.80;2.90
5466;DHT22;2755;50.728;7.108;2023-03-11T09:01:44;10.10;3.20
5466;DHT22;2755;50.728;7.108;2023-03-11T09:04:11;10.00;2.00
5466;DHT22;2755;50.728;7.108;2023-03-11T09:06:42;10.40;1.00
5466;DHT22;2755;50.728;7.108;2023-03-11T09:09:12;10.80;4.10
5466;DHT22;2755;50.728;7.108;2023-03-11T09:14:04;12.50;1.00
5466;DHT22;2755;50.728;7.108;2023-03-11T09:16:29;12.10;1.00
5466;DHT22;2755;50.728;7.108;2023-03-11T09:18:55;12.40;1.00
5466;DHT22;2755;50.728;7.108;2023-03-11T09:21:21;12.00;1.00
5466;DHT22;2755;50.728;7.108;2023-03-11T09:23:47;11.40;1.00
5466;DHT22;2755;50.728;7.108;2023-03-11T09:26:13;10.10;1.00
5466;DHT22;2755;50.728;7.108;2023-03-11T09:28:39;8.90;1.00
5466;DHT22;2755;50.728;7.108;2023-03-11T09:31:05;8.40;1.00
5466;DHT22;2755;50.728;7.108;2023-03-11T09:33:35;7.60;1.00
5466;DHT22;2755;50.728;7.108;2023-03-11T09:36:01;6.90;1.00
5466;DHT22;2755;50.728;7.108;2023-03-11T09:41:00;6.30;1.00
5466;DHT22;2755;50.728;7.108;2023-03-11T09:48:54;5.60;1.00
5466;DHT22;2755;50.728;7.108;2023-03-11T09:51:31;5.10;1.00
5466;DHT22;2755;50.728;7.108;2023-03-11T09:54:07;5.20;7.10
5466;DHT22;2755;50.728;7.108;2023-03-11T09:56:34;5.10;7.30
5466;DHT22;2755;50.728;7.108;2023-03-11T09:59:14;4.90;1.00
5466;DHT22;2755;50.728;7.108;2023-03-11T10:01:43;4.90;6.00
5466;DHT22;2755;50.728;7.108;2023-03-11T10:04:48;5.60;9.50
5466;DHT22;2755;50.728;7.108;2023-03-11T10:07:11;6.20;14.00
5466;DHT22;2755;50.728;7.108;2023-03-11T10:09:42;7.80;11.30
5466;DHT22;2755;50.728;7.108;2023-03-11T10:15:29;10.20;1.00
5466;DHT22;2755;50.728;7.108;2023-03-11T10:18:01;11.50;1.00
5466;DHT22;2755;50.728;7.108;2023-03-11T10:26:17;11.90;1.00
5466;DHT22;2755;50.728;7.108;2023-03-11T10:28:49;10.30;1.00
5466;DHT22;2755;50.728;7.108;2023-03-11T10:31:35;9.90;1.00
5466;DHT22;2755;50.728;7.108;2023-03-11T10:39:18;8.30;1.00
5466;DHT22;2755;50.728;7.108;2023-03-11T10:41:56;8.00;1.00
5466;DHT22;2755;50.728;7.108;2023-03-11T10:44:35;7.70;1.00
5466;DHT22;2755;50.728;7.108;2023-03-11T10:47:01;8.30;1.00
5466;DHT22;2755;50.728;7.108;2023-03-11T10:49:28;8.90;1.00
5466;DHT22;2755;50.728;7.108;2023-03-11T10:51:55;9.50;1.00
5466;DHT22;2755;50.728;7.108;2023-03-11T10:54:22;10.20;1.00
5466;DHT22;2755;50.728;7.108;2023-03-11T10:56:53;10.80;1.00
5466;DHT22;2755;50.728;7.108;2023-03-11T11:01:58;12.30;1.00
5466;DHT22;2755;50.728;7.108;2023-03-11T11:04:37;12.80;1.00
5466;DHT22;2755;50.728;7.108;2023-03-11T11:07:30;13.20;1.00
5466;DHT22;2755;50.728;7.108;2023-03-11T11:12:50;12.50;1.00
5466;DHT22;2755;50.728;7.108;2023-03-11T11:15:37;12.00;1.00
5466;DHT22;2755;50.728;7.108;2023-03-11T11:20:54;10.40;1.00
5466;DHT22;2755;50.728;7.108;2023-03-11T11:25:57;9.70;1.00
5466;DHT22;2755;50.728;7.108;2023-03-11T11:31:04;9.00;1.00
5466;DHT22;2755;50.728;7.108;2023-03-11T11:33:39;9.00;1.00
5466;DHT22;2755;50.728;7.108;2023-03-11T11:36:14;8.80;1.00
5466;DHT22;2755;50.728;7.108;2023-03-11T11:38:41;8.00;1.00
5466;DHT22;2755;50.728;7.108;2023-03-11T11:41:12;8.60;1.00
5466;DHT22;2755;50.728;7.108;2023-03-11T11:43:47;8.80;1.00
5466;DHT22;2755;50.728;7.108;2023-03-11T11:51:59;9.20;1.00
5466;DHT22;2755;50.728;7.108;2023-03-11T11:54:32;9.00;1.00
5466;DHT22;2755;50.728;7.108;2023-03-11T11:57:01;8.80;1.00
5466;DHT22;2755;50.728;7.108;2023-03-11T11:59:32;8.70;1.00
5466;DHT22;2755;50.728;7.108;2023-03-11T12:04:43;8.90;1.00
5466;DHT22;2755;50.728;7.108;2023-03-11T12:18:28;9.30;1.00
5466;DHT22;2755;50.728;7.108;2023-03-11T12:20:57;9.10;1.00
5466;DHT22;2755;50.728;7.108;2023-03-11T12:23:38;9.30;1.00
5466;DHT22;2755;50.728;7.108;2023-03-11T12:26:19;9.70;1.00
5466;DHT22;2755;50.728;7.108;2023-03-11T12:31:16;9.90;1.00
5466;DHT22;2755;50.728;7.108;2023-03-11T12:33:53;9.60;1.00
5466;DHT22;2755;50.728;7.108;2023-03-11T12:36:22;9.90;1.00
5466;DHT22;2755;50.728;7.108;2023-03-11T12:38:49;10.20;1.00
5466;DHT22;2755;50.728;7.108;2023-03-11T12:46:16;9.60;1.00
5466;DHT22;2755;50.728;7.108;2023-03-11T12:54:30;9.10;1.00
5466;DHT22;2755;50.728;7.108;2023-03-11T13:00:02;8.50;1.00
5466;DHT22;2755;50.728;7.108;2023-03-11T13:08:11;7.90;1.00
5466;DHT22;2755;50.728;7.108;2023-03-11T13:10:43;7.90;1.00
5466;DHT22;2755;50.728;7.108;2023-03-11T13:13:40;8.00;1.00
5466;DHT22;2755;50.728;7.108;2023-03-11T13:18:42;7.60;1.00
5466;DHT22;2755;50.728;7.108;2023-03-11T13:27:21;7.80;1.00
5466;DHT22;2755;50.728;7.108;2023-03-11T13:41:31;6.90;1.00
5466;DHT22;2755;50.728;7.108;2023-03-11T13:44:36;7.60;1.00
5466;DHT22;2755;50.728;7.108;2023-03-11T13:47:14;8.00;1.00
5466;DHT22;2755;50.728;7.108;2023-03-11T13:52:35;8.40;1.00
5466;DHT22;2755;50.728;7.108;2023-03-11T13:57:38;9.00;1.00
5466;DHT22;2755;50.728;7.108;2023-03-11T14:00:15;8.30;1.00
5466;DHT22;2755;50.728;7.108;2023-03-11T14:02:48;8.90;1.00
5466;DHT22;2755;50.728;7.108;2023-03-11T14:05:20;7.90;1.00
5466;DHT22;2755;50.728;7.108;2023-03-11T14:10:20;7.50;1.00
5466;DHT22;2755;50.728;7.108;2023-03-11T14:15:16;8.10;1.00
5466;DHT22;2755;50.728;7.108;2023-03-11T14:17:43;7.80;1.00
5466;DHT22;2755;50.728;7.108;2023-03-11T14:20:13;7.10;1.00
5466;DHT22;2755;50.728;7.108;2023-03-11T14:22:43;7.90;1.00
5466;DHT22;2755;50.728;7.108;2023-03-11T14:25:32;7.80;1.00
5466;DHT22;2755;50.728;7.108;2023-03-11T14:28:02;7.90;1.00
5466;DHT22;2755;50.728;7.108;2023-03-11T14:30:31;7.70;1.00
5466;DHT22;2755;50.728;7.108;2023-03-11T14:33:02;7.50;1.00
5466;DHT22;2755;50.728;7.108;2023-03-11T14:35:29;7.40;1.00
5466;DHT22;2755;50.728;7.108;2023-03-11T14:40:26;7.40;1.00
5466;DHT22;2755;50.728;7.108;2023-03-11T14:42:55;7.80;1.00
5466;DHT22;2755;50.728;7.108;2023-03-11T14:45:24;7.30;1.00
5466;DHT22;2755;50.728;7.108;2023-03-11T14:48:26;7.30;1.00
5466;DHT22;2755;50.728;7.108;2023-03-11T14:53:33;7.00;1.00
5466;DHT22;2755;50.728;7.108;2023-03-11T14:56:05;6.80;1.00
5466;DHT22;2755;50.728;7.108;2023-03-11T14:58:33;6.70;1.00
5466;DHT22;2755;50.728;7.108;2023-03-11T15:01:23;6.50;1.00
5466;DHT22;2755;50.728;7.108;2023-03-11T15:06:22;6.30;1.00
5466;DHT22;2755;50.728;7.108;2023-03-11T15:08:54;6.70;1.00
5466;DHT22;2755;50.728;7.108;2023-03-11T15:11:22;6.50;1.00
5466;DHT22;2755;50.728;7.108;2023-03-11T15:13:50;6.60;1.00
5466;DHT22;2755;50.728;7.108;2023-03-11T15:21:18;6.50;1.00
5466;DHT22;2755;50.728;7.108;2023-03-11T15:23:51;6.50;1.00
5466;DHT22;2755;50.728;7.108;2023-03-11T15:26:27;6.10;1.00
5466;DHT22;2755;50.728;7.108;2023-03-11T15:29:13;7.20;1.00
5466;DHT22;2755;50.728;7.108;2023-03-11T15:31:42;6.10;1.00
5466;DHT22;2755;50.728;7.108;2023-03-11T15:34:21;5.90;1.00
5466;DHT22;2755;50.728;7.108;2023-03-11T15:42:32;5.70;1.00
5466;DHT22;2755;50.728;7.108;2023-03-11T15:47:15;5.70;1.00
5466;DHT22;2755;50.728;7.108;2023-03-11T15:52:07;5.60;1.00
5466;DHT22;2755;50.728;7.108;2023-03-11T15:54:33;5.40;1.00
5466;DHT22;2755;50.728;7.108;2023-03-11T15:59:27;5.60;1.00
5466;DHT22;2755;50.728;7.108;2023-03-11T16:01:53;4.80;1.00
5466;DHT22;2755;50.728;7.108;2023-03-11T16:04:20;5.40;1.00
5466;DHT22;2755;50.728;7.108;2023-03-11T16:06:47;5.30;1.00
5466;DHT22;2755;50.728;7.108;2023-03-11T16:09:13;5.40;1.00
5466;DHT22;2755;50.728;7.108;2023-03-11T16:11:40;5.30;1.00
5466;DHT22;2755;50.728;7.108;2023-03-11T16:14:12;5.40;1.00
5466;DHT22;2755;50.728;7.108;2023-03-11T16:16:39;5.10;1.00
5466;DHT22;2755;50.728;7.108;2023-03-11T16:19:04;5.10;1.00
5466;DHT22;2755;50.728;7.108;2023-03-11T16:21:34;5.10;1.00
5466;DHT22;2755;50.728;7.108;2023-03-11T16:24:03;5.60;1.00
5466;DHT22;2755;50.728;7.108;2023-03-11T16:26:29;4.40;1.00
5466;DHT22;2755;50.728;7.108;2023-03-11T16:31:21;4.80;5.20
5466;DHT22;2755;50.728;7.108;2023-03-11T16:33:46;5.00;4.40
5466;DHT22;2755;50.728;7.108;2023-03-11T16:36:12;5.10;4.30
5466;DHT22;2755;50.728;7.108;2023-03-11T16:38:46;4.40;2.00
5466;DHT22;2755;50.728;7.108;2023-03-11T16:41:11;4.60;1.40
5466;DHT22;2755;50.728;7.108;2023-03-11T16:43:37;4.30;1.00
5466;DHT22;2755;50.728;7.108;2023-03-11T16:46:03;4.20;1.00
5466;DHT22;2755;50.728;7.108;2023-03-11T16:48:28;4.30;1.00
5466;DHT22;2755;50.728;7.108;2023-03-11T16:53:20;3.80;1.00
5466;DHT22;2755;50.728;7.108;2023-03-11T16:58:13;4.40;1.00
5466;DHT22;2755;50.728;7.108;2023-03-11T17:00:39;4.30;1.20
5466;DHT22;2755;50.728;7.108;2023-03-11T17:03:13;4.20;2.60
5466;DHT22;2755;50.728;7.108;2023-03-11T17:08:05;3.80;1.20
5466;DHT22;2755;50.728;7.108;2023-03-11T17:10:39;3.20;2.60
5466;DHT22;2755;50.728;7.108;2023-03-11T17:13:06;4.50;1.90
5466;DHT22;2755;50.728;7.108;2023-03-11T17:15:32;3.90;2.00
5466;DHT22;2755;50.728;7.108;2023-03-11T17:18:00;3.80;2.90
5466;DHT22;2755;50.728;7.108;2023-03-11T17:20:26;3.40;3.10
5466;DHT22;2755;50.728;7.108;2023-03-11T17:22:52;3.60;5.90
5466;DHT22;2755;50.728;7.108;2023-03-11T17:25:20;3.60;7.60
5466;DHT22;2755;50.728;7.108;2023-03-11T17:27:46;4.30;9.40
5466;DHT22;2755;50.728;7.108;2023-03-11T17:30:12;3.50;5.90
5466;DHT22;2755;50.728;7.108;2023-03-11T17:32:38;3.20;5.00
5466;DHT22;2755;50.728;7.108;2023-03-11T17:35:04;4.10;7.00
5466;DHT22;2755;50.728;7.108;2023-03-11T17:37:30;3.20;8.50
5466;DHT22;2755;50.728;7.108;2023-03-11T17:39:56;3.60;7.50
5466;DHT22;2755;50.728;7.108;2023-03-11T17:42:22;3.40;7.20
5466;DHT22;2755;50.728;7.108;2023-03-11T17:44:49;3.40;9.80
5466;DHT22;2755;50.728;7.108;2023-03-11T17:47:18;4.00;8.40
5466;DHT22;2755;50.728;7.108;2023-03-11T17:49:46;2.80;9.20
5466;DHT22;2755;50.728;7.108;2023-03-11T17:54:37;3.00;10.70
5466;DHT22;2755;50.728;7.108;2023-03-11T17:57:03;3.00;9.90
5466;DHT22;2755;50.728;7.108;2023-03-11T17:59:28;3.10;11.30
5466;DHT22;2755;50.728;7.108;2023-03-11T18:01:54;2.80;14.80
5466;DHT22;2755;50.728;7.108;2023-03-11T18:06:45;2.40;17.10
5466;DHT22;2755;50.728;7.108;2023-03-11T18:09:11;3.20;18.10
5466;DHT22;2755;50.728;7.108;2023-03-11T18:11:37;2.70;18.40
5466;DHT22;2755;50.728;7.108;2023-03-11T18:14:02;2.50;19.80
5466;DHT22;2755;50.728;7.108;2023-03-11T18:16:28;2.70;19.40
5466;DHT22;2755;50.728;7.108;2023-03-11T18:18:56;2.70;23.10
5466;DHT22;2755;50.728;7.108;2023-03-11T18:21:28;2.40;24.90
5466;DHT22;2755;50.728;7.108;2023-03-11T18:23:55;2.60;24.80
5466;DHT22;2755;50.728;7.108;2023-03-11T18:26:22;2.50;23.30
5466;DHT22;2755;50.728;7.108;2023-03-11T18:28:51;2.30;26.60
5466;DHT22;2755;50.728;7.108;2023-03-11T18:31:20;2.60;27.50
5466;DHT22;2755;50.728;7.108;2023-03-11T18:33:48;2.30;25.80
5466;DHT22;2755;50.728;7.108;2023-03-11T18:36:22;2.50;27.00
5466;DHT22;2755;50.728;7.108;2023-03-11T18:38:48;2.20;28.90
5466;DHT22;2755;50.728;7.108;2023-03-11T18:41:15;2.40;32.80
5466;DHT22;2755;50.728;7.108;2023-03-11T18:43:41;2.40;30.60
5466;DHT22;2755;50.728;7.108;2023-03-11T18:46:12;2.20;31.40
5466;DHT22;2755;50.728;7.108;2023-03-11T18:51:04;2.10;32.60
5466;DHT22;2755;50.728;7.108;2023-03-11T18:53:31;2.10;35.20
5466;DHT22;2755;50.728;7.108;2023-03-11T18:56:02;2.00;31.70
5466;DHT22;2755;50.728;7.108;2023-03-11T18:58:28;2.10;34.20
5466;DHT22;2755;50.728;7.108;2023-03-11T19:00:54;1.90;33.40
5466;DHT22;2755;50.728;7.108;2023-03-11T19:03:20;1.80;39.90
5466;DHT22;2755;50.728;7.108;2023-03-11T19:05:46;1.80;40.30
5466;DHT22;2755;50.728;7.108;2023-03-11T19:08:13;1.90;40.40
5466;DHT22;2755;50.728;7.108;2023-03-11T19:10:40;1.80;40.90
5466;DHT22;2755;50.728;7.108;2023-03-11T19:13:06;1.70;41.80
5466;DHT22;2755;50.728;7.108;2023-03-11T19:15:31;1.70;44.60
5466;DHT22;2755;50.728;7.108;2023-03-11T19:17:57;1.30;43.60
5466;DHT22;2755;50.728;7.108;2023-03-11T19:20:22;1.50;46.90
5466;DHT22;2755;50.728;7.108;2023-03-11T19:22:52;1.60;47.20
5466;DHT22;2755;50.728;7.108;2023-03-11T19:25:18;1.00;47.10
5466;DHT22;2755;50.728;7.108;2023-03-11T19:27:52;1.40;45.40
5466;DHT22;2755;50.728;7.108;2023-03-11T19:30:19;1.40;46.70
5466;DHT22;2755;50.728;7.108;2023-03-11T19:32:45;1.10;44.40
5466;DHT22;2755;50.728;7.108;2023-03-11T19:35:12;1.10;46.20
5466;DHT22;2755;50.728;7.108;2023-03-11T19:37:39;1.00;46.10
5466;DHT22;2755;50.728;7.108;2023-03-11T19:40:05;1.60;47.40
5466;DHT22;2755;50.728;7.108;2023-03-11T19:42:32;0.30;49.00
5466;DHT22;2755;50.728;7.108;2023-03-11T19:44:58;1.10;45.50